createdAt,value
2022-12-04T00:14:08.120Z,0.15
2022-12-04T00:42:51.144Z,0.29
2022-12-04T01:11:28.974Z,0.19
2022-12-04T01:40:08.469Z,0.43
2022-12-04T02:08:44.772Z,0.44
2022-12-04T02:37:17.433Z,0.78
2022-12-04T03:05:54.580Z,0.67
2022-12-04T03:34:33.867Z,0.5
2022-12-04T04:02:54.000Z,0.68
2022-12-04T04:31:27.134Z,0.74
2022-12-04T04:59:59.557Z,0.91
2022-12-04T05:28:37.729Z,0.83
2022-12-04T05:57:09.632Z,1.06
2022-12-04T06:25:43.104Z,1.06
2022-12-04T06:54:24.735Z,1.24
2022-12-04T07:23:07.673Z,1.2
2022-12-04T07:51:20.103Z,1.49
2022-12-04T08:19:55.890Z,1.57
2022-12-04T08:48:17.206Z,1.85
2022-12-04T09:16:47.826Z,2.01
2022-12-04T09:45:20.988Z,2.34
2022-12-04T10:13:49.156Z,2.44
2022-12-04T10:42:26.504Z,2.51
2022-12-04T11:10:53.640Z,2.65
2022-12-04T11:39:25.815Z,2.8
2022-12-04T12:08:03.412Z,2.85
2022-12-04T12:36:12.599Z,2.94
2022-12-04T13:04:44.431Z,3.08
2022-12-04T13:33:15.002Z,2.97
2022-12-04T14:01:44.493Z,2.82
2022-12-04T14:29:59.443Z,2.94
2022-12-04T14:58:24.092Z,3.03
2022-12-04T15:26:49.275Z,2.98
2022-12-04T15:55:32.061Z,2.75
2022-12-04T16:23:42.587Z,2.57
2022-12-04T16:52:10.660Z,2.51
2022-12-04T17:20:43.647Z,2.7
2022-12-04T17:49:08.055Z,2.53
2022-12-04T18:17:18.687Z,2.58
2022-12-04T18:45:45.810Z,2.59
2022-12-04T19:14:02.387Z,2.71
2022-12-04T19:42:16.218Z,2.7
2022-12-04T20:10:50.306Z,2.54
2022-12-04T20:39:04.502Z,2.59
2022-12-04T21:07:40.482Z,2.48
2022-12-04T21:36:00.577Z,2.56
2022-12-04T22:04:12.997Z,2.49
2022-12-04T22:32:33.314Z,2.6
2022-12-04T23:33:20.101Z,2.53
